createdAt,value
2019-02-25T00:01:45.224Z,0.40
2019-02-25T00:04:15.539Z,0.40
2019-02-25T00:06:46.017Z,0.40
2019-02-25T00:09:15.564Z,0.40
2019-02-25T00:11:46.845Z,0.40
2019-02-25T00:14:18.479Z,0.30
2019-02-25T00:16:48.218Z,0.40
2019-02-25T00:19:18.636Z,0.30
2019-02-25T00:21:50.219Z,0.30
2019-02-25T00:24:20.636Z,0.30
2019-02-25T00:26:53.049Z,0.20
2019-02-25T00:29:23.808Z,0.20
2019-02-25T00:31:53.766Z,0.10
2019-02-25T00:34:23.485Z,-0.10
2019-02-25T00:36:54.665Z,-0.10
2019-02-25T00:39:24.289Z,-0.10
2019-02-25T00:41:54.171Z,-0.10
2019-02-25T00:44:23.787Z,0.10
2019-02-25T00:46:53.271Z,0.10
2019-02-25T00:49:23.413Z,0.10
2019-02-25T00:51:54.529Z,0.10
2019-02-25T00:54:24.045Z,0.10
2019-02-25T00:56:54.833Z,0.00
2019-02-25T00:59:25.418Z,-0.10
2019-02-25T01:01:56.997Z,-0.10
2019-02-25T01:04:27.606Z,-0.10
2019-02-25T01:06:57.441Z,-0.40
2019-02-25T01:09:27.756Z,-0.30
2019-02-25T01:11:59.691Z,-0.30
2019-02-25T01:14:29.363Z,-0.30
2019-02-25T01:17:00.277Z,-0.30
2019-02-25T01:19:30.664Z,-0.30
2019-02-25T01:22:00.180Z,-0.10
2019-02-25T01:24:29.660Z,-0.10
2019-02-25T01:27:00.874Z,-0.20
2019-02-25T01:29:30.654Z,-0.20
2019-02-25T01:32:01.474Z,-0.20
2019-02-25T01:34:31.964Z,-0.20
2019-02-25T01:37:02.282Z,-0.20
2019-02-25T01:39:32.067Z,-0.20
2019-02-25T01:42:03.130Z,-0.30
2019-02-25T01:44:32.719Z,-0.60
2019-02-25T01:47:02.239Z,-0.80
2019-02-25T01:49:31.919Z,-0.60
2019-02-25T01:52:01.438Z,-0.50
2019-02-25T01:54:32.020Z,-0.50
2019-02-25T01:57:01.639Z,-0.70
2019-02-25T01:59:31.629Z,-0.60
2019-02-25T02:02:01.152Z,-0.50
2019-02-25T02:04:30.636Z,-0.30
2019-02-25T02:07:01.635Z,-0.10
2019-02-25T02:09:31.215Z,-0.10
2019-02-25T02:12:01.035Z,0.00
2019-02-25T02:14:31.106Z,0.00
2019-02-25T02:17:00.666Z,0.10
2019-02-25T02:19:30.451Z,-0.10
2019-02-25T02:21:59.958Z,-0.30
2019-02-25T02:24:29.437Z,-0.50
2019-02-25T02:26:58.955Z,-0.60
2019-02-25T02:29:28.437Z,-0.80
2019-02-25T02:31:57.889Z,-0.70
2019-02-25T02:34:27.371Z,-0.90
2019-02-25T02:36:58.093Z,-0.80
2019-02-25T02:39:27.592Z,-0.80
2019-02-25T02:42:18.731Z,-0.70
2019-02-25T02:44:51.308Z,-0.70
2019-02-25T02:47:30.835Z,-0.70
2019-02-25T02:50:05.314Z,-0.70
2019-02-25T02:52:36.310Z,-0.60
2019-02-25T02:55:06.529Z,-0.60
2019-02-25T02:57:37.473Z,-0.60
2019-02-25T03:00:12.594Z,-0.70
2019-02-25T03:02:43.813Z,-1.00
2019-02-25T03:05:14.832Z,-1.00
2019-02-25T03:07:45.836Z,-1.00
2019-02-25T03:10:19.282Z,-1.20
2019-02-25T03:12:50.109Z,-1.10
2019-02-25T03:15:21.227Z,-1.20
2019-02-25T03:17:52.164Z,-1.10
2019-02-25T03:20:21.639Z,-1.10
2019-02-25T03:22:52.456Z,-1.00
2019-02-25T03:25:22.078Z,-1.00
2019-02-25T03:27:52.858Z,-0.80
2019-02-25T03:30:22.498Z,-0.80
2019-02-25T03:32:52.087Z,-0.70
2019-02-25T03:35:22.794Z,-0.80
2019-02-25T03:37:52.270Z,-0.80
2019-02-25T03:40:23.717Z,-0.80
2019-02-25T03:42:53.199Z,-0.80
2019-02-25T03:45:22.686Z,-0.70
2019-02-25T03:47:53.563Z,-0.70
2019-02-25T03:50:23.075Z,-0.70
2019-02-25T03:52:52.554Z,-0.70
2019-02-25T03:55:23.267Z,-0.80
2019-02-25T03:57:52.751Z,-0.80
2019-02-25T04:00:26.451Z,-0.80
2019-02-25T04:02:55.915Z,-0.80
2019-02-25T04:05:26.626Z,-0.80
2019-02-25T04:07:56.111Z,-0.90
2019-02-25T04:10:26.836Z,-0.90
2019-02-25T04:12:56.334Z,-0.90
2019-02-25T04:15:30.498Z,-1.00
2019-02-25T04:17:59.926Z,-0.90
2019-02-25T04:20:29.446Z,-1.00
2019-02-25T04:22:58.895Z,-1.00
2019-02-25T04:25:28.396Z,-1.00
2019-02-25T04:27:57.843Z,-1.00
2019-02-25T04:30:28.836Z,-1.10
2019-02-25T04:32:58.257Z,-1.20
2019-02-25T04:35:29.062Z,-1.10
2019-02-25T04:37:58.544Z,-1.10
2019-02-25T04:40:29.413Z,-1.10
2019-02-25T04:42:58.908Z,-1.10
2019-02-25T04:45:28.354Z,-1.20
2019-02-25T04:47:57.836Z,-1.20
2019-02-25T04:50:28.552Z,-1.20
2019-02-25T04:52:57.969Z,-1.10
2019-02-25T04:55:27.420Z,-1.10
2019-02-25T04:57:56.835Z,-1.00
2019-02-25T05:00:27.750Z,-1.00
2019-02-25T05:02:57.171Z,-1.00
2019-02-25T05:05:26.783Z,-1.00
2019-02-25T05:07:56.207Z,-0.80
2019-02-25T05:10:25.614Z,-0.90
2019-02-25T05:13:02.783Z,-1.00
2019-02-25T05:15:33.772Z,-1.00
2019-02-25T05:18:03.222Z,-1.10
2019-02-25T05:20:32.704Z,-1.30
2019-02-25T05:23:02.221Z,-1.60
2019-02-25T05:25:33.172Z,-1.80
2019-02-25T05:28:02.618Z,-1.90
2019-02-25T05:30:32.036Z,-1.80
2019-02-25T05:33:01.478Z,-1.90
2019-02-25T05:35:30.903Z,-2.10
2019-02-25T05:38:00.346Z,-1.90
2019-02-25T05:40:31.330Z,-1.80
2019-02-25T05:43:00.787Z,-1.60
2019-02-25T05:45:30.272Z,-1.50
2019-02-25T05:47:59.789Z,-1.60
2019-02-25T05:50:30.673Z,-1.60
2019-02-25T05:53:00.120Z,-1.60
2019-02-25T05:55:31.011Z,-1.70
2019-02-25T05:58:00.478Z,-1.60
2019-02-25T06:00:31.798Z,-1.50
2019-02-25T06:03:01.256Z,-1.50
2019-02-25T06:05:30.737Z,-1.50
2019-02-25T06:08:00.182Z,-1.60
2019-02-25T06:10:29.607Z,-1.70
2019-02-25T06:12:59.127Z,-1.40
2019-02-25T06:15:29.902Z,-1.40
2019-02-25T06:17:59.427Z,-1.30
2019-02-25T06:20:30.216Z,-1.40
2019-02-25T06:22:59.668Z,-1.50
2019-02-25T06:25:30.764Z,-1.60
2019-02-25T06:28:00.204Z,-1.60
2019-02-25T06:30:31.187Z,-1.30
2019-02-25T06:33:00.652Z,-0.90
2019-02-25T06:35:30.063Z,-0.90
2019-02-25T06:37:59.523Z,-0.80
2019-02-25T06:40:30.500Z,-0.70
2019-02-25T06:43:00.030Z,-0.50
2019-02-25T06:45:33.001Z,-0.40
2019-02-25T06:48:02.523Z,-0.30
2019-02-25T06:50:33.212Z,0.00
2019-02-25T06:53:02.620Z,0.30
2019-02-25T06:55:33.534Z,0.30
2019-02-25T06:58:02.943Z,0.40
2019-02-25T07:00:32.387Z,0.50
2019-02-25T07:03:01.875Z,0.80
2019-02-25T07:05:46.795Z,1.10
2019-02-25T07:08:17.901Z,1.40
2019-02-25T07:10:48.935Z,1.70
2019-02-25T07:13:19.979Z,2.00
2019-02-25T07:16:07.338Z,2.10
2019-02-25T07:18:38.459Z,2.20
2019-02-25T07:21:12.539Z,2.30
2019-02-25T07:23:46.399Z,2.40
2019-02-25T07:26:18.748Z,2.50
2019-02-25T07:29:03.391Z,2.70
2019-02-25T07:31:34.240Z,2.80
2019-02-25T07:34:08.082Z,2.40
2019-02-25T07:36:44.836Z,2.10
2019-02-25T07:39:31.915Z,2.70
2019-02-25T07:42:13.362Z,3.70
2019-02-25T07:44:59.425Z,5.00
2019-02-25T07:47:30.507Z,5.70
2019-02-25T07:50:01.554Z,5.70
2019-02-25T07:52:46.146Z,5.90
2019-02-25T07:55:33.736Z,6.90
2019-02-25T07:58:13.819Z,7.10
2019-02-25T08:00:44.971Z,8.60
2019-02-25T08:03:16.031Z,10.70
2019-02-25T08:05:47.128Z,11.60
2019-02-25T08:08:34.578Z,12.10
2019-02-25T08:11:22.144Z,12.50
2019-02-25T08:13:56.259Z,12.80
2019-02-25T08:16:28.710Z,12.80
2019-02-25T08:19:16.055Z,13.10
2019-02-25T08:21:48.913Z,13.50
2019-02-25T08:24:36.034Z,13.70
2019-02-25T08:27:08.393Z,14.00
2019-02-25T08:29:39.531Z,14.00
2019-02-25T08:32:14.493Z,15.20
2019-02-25T08:34:45.612Z,16.10
2019-02-25T08:37:25.854Z,15.00
2019-02-25T08:40:15.272Z,14.80
2019-02-25T08:42:46.930Z,15.30
2019-02-25T08:45:33.280Z,15.10
2019-02-25T08:48:04.368Z,15.40
2019-02-25T08:50:35.558Z,16.00
2019-02-25T08:53:05.003Z,16.80
2019-02-25T08:55:35.778Z,17.00
2019-02-25T08:58:05.248Z,17.00
2019-02-25T09:00:36.037Z,17.70
2019-02-25T09:03:05.550Z,18.10
2019-02-25T09:05:35.367Z,18.90
2019-02-25T09:08:04.826Z,19.40
2019-02-25T09:10:34.316Z,19.60
2019-02-25T09:13:03.827Z,19.80
2019-02-25T09:15:34.647Z,19.50
2019-02-25T09:18:03.285Z,20.10
2019-02-25T09:20:34.162Z,20.10
2019-02-25T09:23:03.679Z,19.20
2019-02-25T09:25:34.556Z,19.50
2019-02-25T09:28:04.048Z,20.50
2019-02-25T09:30:33.566Z,20.50
2019-02-25T09:33:03.001Z,21.00
2019-02-25T09:35:32.497Z,21.20
2019-02-25T09:38:02.479Z,20.80
2019-02-25T09:40:33.190Z,20.80
2019-02-25T09:45:23.741Z,20.90
2019-02-25T09:47:53.153Z,20.70
2019-02-25T09:50:23.962Z,20.70
2019-02-25T09:52:53.375Z,21.60
2019-02-25T09:55:23.639Z,22.00
2019-02-25T09:57:53.254Z,21.70
2019-02-25T10:00:24.106Z,22.00
2019-02-25T10:02:53.949Z,22.00
2019-02-25T10:05:24.697Z,21.90
2019-02-25T10:07:54.151Z,21.90
2019-02-25T10:10:24.862Z,21.60
2019-02-25T10:12:54.347Z,21.90
2019-02-25T10:15:26.903Z,21.50
2019-02-25T10:17:56.389Z,22.50
2019-02-25T10:20:27.115Z,22.60
2019-02-25T10:22:56.600Z,22.70
2019-02-25T10:25:27.516Z,22.30
2019-02-25T10:27:56.998Z,22.20
2019-02-25T10:30:27.921Z,22.30
2019-02-25T10:32:57.403Z,22.40
2019-02-25T10:35:28.554Z,23.00
2019-02-25T10:37:58.040Z,22.50
2019-02-25T10:40:28.966Z,22.20
2019-02-25T10:42:58.444Z,22.60
2019-02-25T10:45:27.923Z,23.00
2019-02-25T10:47:58.734Z,22.60
2019-02-25T10:50:31.097Z,22.80
2019-02-25T10:53:03.714Z,23.30
2019-02-25T10:55:41.357Z,23.10
2019-02-25T10:58:11.457Z,22.50
2019-02-25T11:00:41.660Z,23.20
2019-02-25T11:03:12.862Z,23.80
2019-02-25T11:05:43.172Z,23.80
2019-02-25T11:08:14.353Z,23.50
2019-02-25T11:10:49.064Z,23.30
2019-02-25T11:13:19.542Z,23.50
2019-02-25T11:15:48.960Z,23.30
2019-02-25T11:18:20.305Z,22.50
2019-02-25T11:20:51.204Z,23.10
2019-02-25T11:23:21.661Z,23.30
2019-02-25T11:25:53.709Z,23.60
2019-02-25T11:28:25.914Z,24.00
2019-02-25T11:30:56.014Z,23.90
2019-02-25T11:33:27.493Z,23.70
2019-02-25T11:35:56.632Z,23.60
2019-02-25T11:38:28.692Z,24.30
2019-02-25T11:40:59.901Z,24.60
2019-02-25T11:43:30.359Z,23.80
2019-02-25T11:45:59.775Z,24.90
2019-02-25T11:48:29.294Z,25.10
2019-02-25T11:51:00.168Z,24.30
2019-02-25T11:53:29.610Z,24.90
2019-02-25T11:56:00.289Z,25.30
2019-02-25T11:58:29.879Z,25.40
2019-02-25T12:01:00.551Z,25.50
2019-02-25T12:03:30.388Z,25.60
2019-02-25T12:06:01.063Z,25.40
2019-02-25T12:08:30.783Z,24.80
2019-02-25T12:11:00.185Z,25.00
2019-02-25T12:13:29.698Z,25.40
2019-02-25T12:16:00.626Z,26.00
2019-02-25T12:18:30.131Z,25.80
2019-02-25T12:20:59.535Z,25.70
2019-02-25T12:23:29.035Z,25.70
2019-02-25T12:25:59.723Z,25.50
2019-02-25T12:28:29.323Z,25.10
2019-02-25T12:31:00.002Z,25.40
2019-02-25T12:33:29.508Z,25.20
2019-02-25T12:35:58.978Z,24.80
2019-02-25T12:38:28.433Z,24.70
2019-02-25T12:40:57.917Z,24.60
2019-02-25T12:43:27.422Z,24.60
2019-02-25T12:45:56.932Z,24.80
2019-02-25T12:48:26.384Z,24.70
2019-02-25T12:50:55.794Z,24.60
2019-02-25T12:53:25.514Z,24.70
2019-02-25T12:55:56.292Z,24.80
2019-02-25T12:58:25.727Z,24.30
2019-02-25T13:00:55.234Z,23.90
2019-02-25T13:03:24.658Z,23.40
2019-02-25T13:05:54.254Z,23.00
2019-02-25T13:08:23.732Z,23.10
2019-02-25T13:10:54.720Z,23.40
2019-02-25T13:13:24.128Z,22.80
2019-02-25T13:15:55.367Z,22.30
2019-02-25T13:18:24.775Z,21.40
2019-02-25T13:20:55.682Z,20.30
2019-02-25T13:23:25.095Z,19.30
2019-02-25T13:25:54.532Z,19.20
2019-02-25T13:28:26.004Z,19.00
2019-02-25T13:30:55.069Z,18.60
2019-02-25T13:33:24.474Z,18.20
2019-02-25T13:35:57.040Z,17.70
2019-02-25T13:38:26.203Z,17.20
2019-02-25T13:40:57.020Z,16.80
2019-02-25T13:43:27.568Z,17.00
2019-02-25T13:45:57.066Z,16.90
2019-02-25T13:48:26.555Z,16.60
2019-02-25T13:50:56.056Z,16.60
2019-02-25T13:53:25.459Z,16.50
2019-02-25T13:55:56.170Z,16.00
2019-02-25T13:58:25.647Z,16.00
2019-02-25T14:00:55.147Z,16.00
2019-02-25T14:03:24.636Z,16.00
2019-02-25T14:05:55.647Z,15.90
2019-02-25T14:08:25.057Z,15.60
2019-02-25T14:10:54.558Z,15.50
2019-02-25T14:13:23.968Z,15.50
2019-02-25T14:15:54.682Z,15.50
2019-02-25T14:18:24.154Z,15.40
2019-02-25T14:20:54.875Z,15.30
2019-02-25T14:23:24.480Z,15.20
2019-02-25T14:25:53.894Z,15.10
2019-02-25T14:28:23.326Z,15.10
2019-02-25T14:30:53.996Z,15.00
2019-02-25T14:33:23.744Z,14.90
2019-02-25T14:35:54.586Z,14.80
2019-02-25T14:38:25.228Z,14.80
2019-02-25T14:40:56.897Z,14.90
2019-02-25T14:43:27.475Z,14.90
2019-02-25T14:45:58.925Z,14.70
2019-02-25T14:48:30.186Z,14.70
2019-02-25T14:51:00.303Z,14.80
2019-02-25T14:53:30.015Z,14.80
2019-02-25T14:56:03.484Z,14.60
2019-02-25T14:58:35.536Z,14.40
2019-02-25T15:01:03.874Z,14.20
2019-02-25T15:03:34.281Z,13.90
2019-02-25T15:06:05.060Z,13.80
2019-02-25T15:08:34.960Z,13.60
2019-02-25T15:11:07.131Z,13.50
2019-02-25T15:13:39.010Z,13.60
2019-02-25T15:16:08.446Z,13.50
2019-02-25T15:18:38.058Z,13.60
2019-02-25T15:21:09.102Z,13.70
2019-02-25T15:23:38.870Z,13.80
2019-02-25T15:26:08.456Z,13.80
2019-02-25T15:28:37.970Z,13.70
2019-02-25T15:31:11.356Z,13.60
2019-02-25T15:33:40.875Z,13.50
2019-02-25T15:36:13.473Z,13.40
2019-02-25T15:38:44.567Z,13.40
2019-02-25T15:41:14.202Z,13.20
2019-02-25T15:43:44.314Z,13.30
2019-02-25T15:46:16.599Z,13.20
2019-02-25T15:48:46.192Z,13.30
2019-02-25T15:51:18.373Z,13.30
2019-02-25T15:53:48.861Z,13.20
2019-02-25T15:56:20.375Z,12.90
2019-02-25T15:58:49.889Z,12.90
2019-02-25T16:01:20.667Z,12.80
2019-02-25T16:03:50.167Z,12.80
2019-02-25T16:06:19.770Z,12.70
2019-02-25T16:08:51.853Z,12.60
2019-02-25T16:11:25.524Z,12.70
2019-02-25T16:13:53.496Z,12.50
2019-02-25T16:16:23.750Z,12.30
2019-02-25T16:18:53.613Z,12.10
2019-02-25T16:21:24.427Z,12.10
2019-02-25T16:23:54.214Z,12.00
2019-02-25T16:26:23.703Z,11.90
2019-02-25T16:28:55.254Z,11.80
2019-02-25T16:31:26.003Z,11.70
2019-02-25T16:33:57.509Z,11.70
2019-02-25T16:36:28.148Z,11.60
2019-02-25T16:38:58.606Z,11.50
2019-02-25T16:41:32.192Z,11.50
2019-02-25T16:44:01.770Z,11.20
2019-02-25T16:46:34.226Z,11.00
2019-02-25T16:49:03.662Z,10.90
2019-02-25T16:51:36.974Z,10.70
2019-02-25T16:54:06.892Z,10.40
2019-02-25T16:56:37.143Z,10.30
2019-02-25T16:59:10.813Z,10.10
2019-02-25T17:01:39.936Z,9.80
2019-02-25T17:04:11.954Z,9.60
2019-02-25T17:06:41.192Z,9.30
2019-02-25T17:09:12.374Z,9.30
2019-02-25T17:11:43.990Z,9.10
2019-02-25T17:14:14.899Z,9.00
2019-02-25T17:16:46.992Z,8.90
2019-02-25T17:19:16.402Z,8.70
2019-02-25T17:21:47.195Z,8.70
2019-02-25T17:24:16.704Z,8.70
2019-02-25T17:26:46.247Z,8.80
2019-02-25T17:29:15.798Z,8.90
2019-02-25T17:31:46.717Z,8.80
2019-02-25T17:34:16.996Z,8.50
2019-02-25T17:36:50.081Z,8.40
2019-02-25T17:39:19.807Z,8.30
2019-02-25T17:41:50.732Z,8.30
2019-02-25T17:44:20.645Z,8.20
2019-02-25T17:46:52.492Z,8.20
2019-02-25T17:49:21.983Z,8.10
2019-02-25T17:51:53.301Z,7.90
2019-02-25T17:54:24.057Z,7.80
2019-02-25T17:56:53.635Z,7.70
2019-02-25T17:59:24.784Z,7.60
2019-02-25T18:01:54.206Z,7.80
2019-02-25T18:04:24.426Z,7.90
2019-02-25T18:06:56.166Z,7.90
2019-02-25T18:09:25.579Z,7.70
2019-02-25T18:11:56.546Z,7.70
2019-02-25T18:14:25.987Z,7.60
2019-02-25T18:16:55.556Z,7.60
2019-02-25T18:19:27.019Z,7.60
2019-02-25T18:21:58.796Z,7.30
2019-02-25T18:24:28.338Z,7.20
2019-02-25T18:26:57.897Z,7.10
2019-02-25T18:29:27.414Z,7.00
2019-02-25T18:31:58.482Z,7.00
2019-02-25T18:34:28.474Z,7.10
2019-02-25T18:37:00.513Z,7.00
2019-02-25T18:39:31.595Z,6.80
2019-02-25T18:42:02.796Z,6.70
2019-02-25T18:44:33.498Z,6.80
2019-02-25T18:47:03.577Z,6.90
2019-02-25T18:49:35.004Z,6.80
2019-02-25T18:52:06.379Z,6.80
2019-02-25T18:54:36.952Z,6.70
2019-02-25T18:57:07.640Z,6.80
2019-02-25T18:59:37.682Z,6.80
2019-02-25T19:02:10.284Z,6.70
2019-02-25T19:04:41.379Z,6.50
2019-02-25T19:07:12.480Z,6.50
2019-02-25T19:09:42.960Z,6.50
2019-02-25T19:12:13.074Z,6.50
2019-02-25T19:14:42.582Z,6.40
2019-02-25T19:17:13.361Z,6.30
2019-02-25T19:19:43.215Z,6.20
2019-02-25T19:22:17.405Z,6.10
2019-02-25T19:24:48.777Z,6.10
2019-02-25T19:27:17.977Z,6.00
2019-02-25T19:29:49.410Z,6.10
2019-02-25T19:32:20.969Z,6.10
2019-02-25T19:34:51.903Z,6.10
2019-02-25T19:37:21.786Z,5.90
2019-02-25T19:39:51.310Z,5.90
2019-02-25T19:42:22.885Z,5.80
2019-02-25T19:44:53.072Z,5.80
2019-02-25T19:47:22.547Z,5.80
2019-02-25T19:49:52.052Z,5.70
2019-02-25T19:52:23.060Z,5.70
2019-02-25T19:54:52.744Z,5.70
2019-02-25T19:57:23.792Z,5.70
2019-02-25T19:59:56.152Z,5.70
2019-02-25T20:02:27.136Z,5.60
2019-02-25T20:04:58.351Z,5.50
2019-02-25T20:07:31.507Z,5.60
2019-02-25T20:10:02.265Z,5.50
2019-02-25T20:12:35.139Z,5.40
2019-02-25T20:15:11.765Z,5.50
2019-02-25T20:17:45.820Z,5.50
2019-02-25T20:20:15.068Z,5.50
2019-02-25T20:22:46.349Z,5.50
2019-02-25T20:25:18.822Z,5.50
2019-02-25T20:27:50.879Z,5.40
2019-02-25T20:30:21.938Z,5.30
2019-02-25T20:32:53.333Z,5.20
2019-02-25T20:35:24.519Z,5.00
2019-02-25T20:37:55.719Z,5.00
2019-02-25T20:40:26.687Z,4.90
2019-02-25T20:42:58.072Z,4.70
2019-02-25T20:45:33.218Z,4.80
2019-02-25T20:48:02.661Z,4.90
2019-02-25T20:50:33.006Z,4.90
2019-02-25T20:53:05.776Z,4.90
2019-02-25T20:55:35.929Z,5.00
2019-02-25T20:58:05.062Z,4.90
2019-02-25T21:00:37.243Z,4.90
2019-02-25T21:03:06.307Z,4.80
2019-02-25T21:05:35.929Z,4.70
2019-02-25T21:08:06.328Z,4.60
2019-02-25T21:10:37.350Z,4.60
2019-02-25T21:13:06.969Z,4.60
2019-02-25T21:15:38.409Z,4.60
2019-02-25T21:18:08.263Z,4.60
2019-02-25T21:20:38.169Z,4.40
2019-02-25T21:23:09.897Z,4.40
2019-02-25T21:25:40.049Z,4.40
2019-02-25T21:28:11.313Z,4.60
2019-02-25T21:30:43.210Z,4.50
2019-02-25T21:33:15.353Z,4.50
2019-02-25T21:35:43.958Z,4.30
2019-02-25T21:38:13.555Z,4.50
2019-02-25T21:40:46.076Z,4.50
2019-02-25T21:43:16.473Z,4.40
2019-02-25T21:45:50.094Z,4.40
2019-02-25T21:48:23.077Z,4.40
2019-02-25T21:50:52.170Z,4.30
2019-02-25T21:53:21.840Z,4.30
2019-02-25T21:55:53.512Z,4.40
2019-02-25T21:58:25.352Z,4.50
2019-02-25T22:00:55.382Z,4.30
2019-02-25T22:03:25.123Z,4.20
2019-02-25T22:05:58.768Z,4.00
2019-02-25T22:08:29.094Z,3.90
2019-02-25T22:11:11.776Z,3.80
2019-02-25T22:13:30.646Z,3.80
2019-02-25T22:16:01.801Z,3.80
2019-02-25T22:18:32.550Z,4.00
2019-02-25T22:21:07.147Z,4.00
2019-02-25T22:23:37.151Z,3.90
2019-02-25T22:26:08.636Z,3.80
2019-02-25T22:28:39.427Z,3.80
2019-02-25T22:31:10.935Z,3.70
2019-02-25T22:33:40.267Z,3.70
2019-02-25T22:36:09.771Z,3.70
2019-02-25T22:38:39.652Z,3.60
2019-02-25T22:41:09.162Z,3.70
2019-02-25T22:43:39.505Z,3.70
2019-02-25T22:46:11.664Z,3.80
2019-02-25T22:48:43.125Z,3.70
2019-02-25T22:51:11.814Z,3.60
2019-02-25T22:53:41.291Z,3.60
2019-02-25T22:56:13.308Z,3.40
2019-02-25T22:58:42.986Z,3.40
2019-02-25T23:01:17.468Z,3.40
2019-02-25T23:03:46.982Z,3.40
2019-02-25T23:06:18.274Z,3.50
2019-02-25T23:08:48.745Z,3.30
2019-02-25T23:11:22.064Z,3.20
2019-02-25T23:13:54.788Z,3.10
2019-02-25T23:16:25.582Z,3.20
2019-02-25T23:18:55.020Z,3.20
2019-02-25T23:21:26.556Z,3.30
2019-02-25T23:23:58.078Z,3.40
2019-02-25T23:26:28.847Z,3.30
2019-02-25T23:28:59.826Z,3.30
2019-02-25T23:31:29.965Z,3.20
2019-02-25T23:34:00.325Z,3.10
2019-02-25T23:36:31.274Z,3.10
2019-02-25T23:39:01.784Z,3.10
2019-02-25T23:41:36.309Z,3.00
2019-02-25T23:44:04.566Z,2.90
2019-02-25T23:46:37.321Z,2.90
2019-02-25T23:49:06.464Z,2.90
2019-02-25T23:51:37.743Z,2.90
2019-02-25T23:54:11.836Z,2.80
2019-02-25T23:56:39.453Z,2.80
2019-02-25T23:59:10.730Z,2.90
